Equality, Missouri
Current Conditions -  °F | °C
As of 12:35 PM on Sunday 23 Nov 2014 (Local Time) from KAIZ Reporting Station
Overcast Overcast  
Wind Chill: 55°   Ceiling: 800
Heat Index: 55°   Visibility: 9mi
Dew Point: 52°   Wind: 6mph
Humidity: 88%   Direction: 140°SE
Pressure: 29.42"   Gusts: NA
Location:  38.2579°N, 92.4965°W
Report Text: KAIZ 231835Z AUTO 14005KT 9SM OVC008 13/11 A2942 RMK AO1
Loading
Personal Weather Stations






























Interactive Weather Map New forecast layout! Learn more

10-Day Weather Forecast

Advertisements
Track Severe Weather on mobile